sensor_id;sensor_type;location;lat;lon;timestamp;P1;durP1;ratioP1;P2;durP2;ratioP2
69188;SDS011;56302;52.322;5.926;2023-10-13T00:00:32;24.50;;;12.95;;
69188;SDS011;56302;52.322;5.926;2023-10-13T00:03:01;24.50;;;14.05;;
69188;SDS011;56302;52.322;5.926;2023-10-13T00:05:30;25.40;;;13.93;;
69188;SDS011;56302;52.322;5.926;2023-10-13T00:07:58;25.90;;;14.00;;
69188;SDS011;56302;52.322;5.926;2023-10-13T00:10:31;29.05;;;14.00;;
69188;SDS011;56302;52.322;5.926;2023-10-13T00:12:58;28.95;;;12.50;;
69188;SDS011;56302;52.322;5.926;2023-10-13T00:18:29;22.77;;;11.82;;
69188;SDS011;56302;52.322;5.926;2023-10-13T00:20:58;28.77;;;13.02;;
69188;SDS011;56302;52.322;5.926;2023-10-13T00:23:24;20.63;;;11.95;;
69188;SDS011;56302;52.322;5.926;2023-10-13T00:25:52;24.23;;;12.02;;
69188;SDS011;56302;52.322;5.926;2023-10-13T00:28:27;26.98;;;12.02;;
69188;SDS011;56302;52.322;5.926;2023-10-13T00:31:00;25.65;;;12.32;;
69188;SDS011;56302;52.322;5.926;2023-10-13T00:33:36;24.35;;;12.55;;
69188;SDS011;56302;52.322;5.926;2023-10-13T00:36:02;24.25;;;11.95;;
69188;SDS011;56302;52.322;5.926;2023-10-13T00:38:30;27.42;;;12.75;;
69188;SDS011;56302;52.322;5.926;2023-10-13T00:40:55;25.07;;;13.00;;
69188;SDS011;56302;52.322;5.926;2023-10-13T00:43:28;28.20;;;12.32;;
69188;SDS011;56302;52.322;5.926;2023-10-13T00:45:54;23.57;;;12.73;;
69188;SDS011;56302;52.322;5.926;2023-10-13T00:48:30;23.38;;;12.35;;
69188;SDS011;56302;52.322;5.926;2023-10-13T00:51:02;27.23;;;12.95;;
69188;SDS011;56302;52.322;5.926;2023-10-13T00:53:31;24.95;;;12.30;;
69188;SDS011;56302;52.322;5.926;2023-10-13T00:56:09;23.80;;;12.48;;
69188;SDS011;56302;52.322;5.926;2023-10-13T00:58:45;27.52;;;12.68;;
69188;SDS011;56302;52.322;5.926;2023-10-13T01:01:11;21.38;;;10.25;;
69188;SDS011;56302;52.322;5.926;2023-10-13T01:03:46;24.73;;;12.10;;
69188;SDS011;56302;52.322;5.926;2023-10-13T01:06:14;23.58;;;11.70;;
69188;SDS011;56302;52.322;5.926;2023-10-13T01:08:47;21.83;;;11.43;;
69188;SDS011;56302;52.322;5.926;2023-10-13T01:11:17;19.60;;;10.65;;
69188;SDS011;56302;52.322;5.926;2023-10-13T01:13:43;24.92;;;10.73;;
69188;SDS011;56302;52.322;5.926;2023-10-13T01:16:12;24.08;;;11.35;;
69188;SDS011;56302;52.322;5.926;2023-10-13T01:18:37;24.23;;;11.33;;
69188;SDS011;56302;52.322;5.926;2023-10-13T01:21:13;24.67;;;11.73;;
69188;SDS011;56302;52.322;5.926;2023-10-13T01:23:42;24.90;;;11.73;;
69188;SDS011;56302;52.322;5.926;2023-10-13T01:26:10;19.90;;;11.38;;
69188;SDS011;56302;52.322;5.926;2023-10-13T01:28:38;23.80;;;11.68;;
69188;SDS011;56302;52.322;5.926;2023-10-13T01:31:11;23.08;;;11.13;;
69188;SDS011;56302;52.322;5.926;2023-10-13T01:33:50;21.40;;;10.45;;
69188;SDS011;56302;52.322;5.926;2023-10-13T01:36:19;23.52;;;11.60;;
69188;SDS011;56302;52.322;5.926;2023-10-13T01:38:48;21.60;;;12.13;;
69188;SDS011;56302;52.322;5.926;2023-10-13T01:41:18;24.48;;;11.60;;
69188;SDS011;56302;52.322;5.926;2023-10-13T01:43:45;22.02;;;12.85;;
69188;SDS011;56302;52.322;5.926;2023-10-13T01:46:11;22.00;;;12.70;;
69188;SDS011;56302;52.322;5.926;2023-10-13T01:48:38;19.70;;;11.27;;
69188;SDS011;56302;52.322;5.926;2023-10-13T01:51:07;25.75;;;12.57;;
69188;SDS011;56302;52.322;5.926;2023-10-13T01:53:36;23.45;;;12.15;;
69188;SDS011;56302;52.322;5.926;2023-10-13T01:56:03;21.08;;;12.02;;
69188;SDS011;56302;52.322;5.926;2023-10-13T01:58:35;22.65;;;13.52;;
69188;SDS011;56302;52.322;5.926;2023-10-13T02:01:01;27.55;;;13.10;;
69188;SDS011;56302;52.322;5.926;2023-10-13T02:03:32;25.95;;;13.52;;
69188;SDS011;56302;52.322;5.926;2023-10-13T02:05:58;23.88;;;12.90;;
69188;SDS011;56302;52.322;5.926;2023-10-13T02:08:29;23.20;;;12.07;;
69188;SDS011;56302;52.322;5.926;2023-10-13T02:10:56;22.80;;;12.70;;
69188;SDS011;56302;52.322;5.926;2023-10-13T02:13:25;23.70;;;13.85;;
69188;SDS011;56302;52.322;5.926;2023-10-13T02:15:55;22.40;;;12.60;;
69188;SDS011;56302;52.322;5.926;2023-10-13T02:18:23;21.08;;;12.38;;
69188;SDS011;56302;52.322;5.926;2023-10-13T02:21:01;22.83;;;12.97;;
69188;SDS011;56302;52.322;5.926;2023-10-13T02:23:37;25.08;;;12.77;;
69188;SDS011;56302;52.322;5.926;2023-10-13T02:26:08;23.65;;;13.07;;
69188;SDS011;56302;52.322;5.926;2023-10-13T02:28:41;23.42;;;12.60;;
69188;SDS011;56302;52.322;5.926;2023-10-13T02:31:09;24.08;;;12.88;;
69188;SDS011;56302;52.322;5.926;2023-10-13T02:33:36;21.40;;;12.00;;
69188;SDS011;56302;52.322;5.926;2023-10-13T02:36:09;19.67;;;11.85;;
69188;SDS011;56302;52.322;5.926;2023-10-13T02:38:37;19.08;;;11.85;;
69188;SDS011;56302;52.322;5.926;2023-10-13T02:41:12;20.60;;;12.80;;
69188;SDS011;56302;52.322;5.926;2023-10-13T02:43:50;22.52;;;11.77;;
69188;SDS011;56302;52.322;5.926;2023-10-13T02:46:15;22.53;;;11.63;;
69188;SDS011;56302;52.322;5.926;2023-10-13T02:48:41;19.53;;;11.57;;
69188;SDS011;56302;52.322;5.926;2023-10-13T02:51:10;19.50;;;12.25;;
69188;SDS011;56302;52.322;5.926;2023-10-13T02:53:43;18.33;;;11.00;;
69188;SDS011;56302;52.322;5.926;2023-10-13T02:56:15;20.05;;;11.55;;
69188;SDS011;56302;52.322;5.926;2023-10-13T02:58:52;19.55;;;12.07;;
69188;SDS011;56302;52.322;5.926;2023-10-13T03:01:19;20.00;;;11.07;;
69188;SDS011;56302;52.322;5.926;2023-10-13T03:03:48;21.70;;;10.02;;
69188;SDS011;56302;52.322;5.926;2023-10-13T03:06:19;19.83;;;10.05;;
69188;SDS011;56302;52.322;5.926;2023-10-13T03:08:57;19.08;;;10.55;;
69188;SDS011;56302;52.322;5.926;2023-10-13T03:11:46;18.67;;;10.93;;
69188;SDS011;56302;52.322;5.926;2023-10-13T03:16:54;16.00;;;10.18;;
69188;SDS011;56302;52.322;5.926;2023-10-13T03:19:26;18.17;;;10.85;;
69188;SDS011;56302;52.322;5.926;2023-10-13T03:21:57;18.55;;;10.18;;
69188;SDS011;56302;52.322;5.926;2023-10-13T03:24:34;22.02;;;11.18;;
69188;SDS011;56302;52.322;5.926;2023-10-13T03:27:00;17.30;;;10.02;;
69188;SDS011;56302;52.322;5.926;2023-10-13T03:29:34;18.92;;;9.68;;
69188;SDS011;56302;52.322;5.926;2023-10-13T03:32:00;21.65;;;10.65;;
69188;SDS011;56302;52.322;5.926;2023-10-13T03:34:36;16.00;;;9.53;;
69188;SDS011;56302;52.322;5.926;2023-10-13T03:37:18;19.55;;;9.70;;
69188;SDS011;56302;52.322;5.926;2023-10-13T03:40:03;19.73;;;9.98;;
69188;SDS011;56302;52.322;5.926;2023-10-13T03:42:44;18.58;;;9.23;;
69188;SDS011;56302;52.322;5.926;2023-10-13T03:45:23;18.33;;;9.82;;
69188;SDS011;56302;52.322;5.926;2023-10-13T03:47:52;15.70;;;8.60;;
69188;SDS011;56302;52.322;5.926;2023-10-13T03:50:18;16.50;;;9.30;;
69188;SDS011;56302;52.322;5.926;2023-10-13T03:52:57;19.38;;;10.60;;
69188;SDS011;56302;52.322;5.926;2023-10-13T03:55:26;19.70;;;9.82;;
69188;SDS011;56302;52.322;5.926;2023-10-13T03:57:53;17.10;;;9.43;;
69188;SDS011;56302;52.322;5.926;2023-10-13T04:00:19;18.25;;;9.98;;
69188;SDS011;56302;52.322;5.926;2023-10-13T04:02:52;15.40;;;9.70;;
69188;SDS011;56302;52.322;5.926;2023-10-13T04:05:28;18.67;;;9.75;;
69188;SDS011;56302;52.322;5.926;2023-10-13T04:08:26;16.52;;;9.18;;
69188;SDS011;56302;52.322;5.926;2023-10-13T04:10:52;18.33;;;9.20;;
69188;SDS011;56302;52.322;5.926;2023-10-13T04:13:18;18.58;;;9.43;;
69188;SDS011;56302;52.322;5.926;2023-10-13T04:16:11;17.53;;;8.27;;
69188;SDS011;56302;52.322;5.926;2023-10-13T04:18:59;14.40;;;8.38;;
69188;SDS011;56302;52.322;5.926;2023-10-13T04:21:25;13.88;;;8.48;;
69188;SDS011;56302;52.322;5.926;2023-10-13T04:24:04;16.95;;;8.50;;
69188;SDS011;56302;52.322;5.926;2023-10-13T04:26:49;11.35;;;7.78;;
69188;SDS011;56302;52.322;5.926;2023-10-13T04:29:34;14.47;;;7.40;;
69188;SDS011;56302;52.322;5.926;2023-10-13T04:32:17;10.77;;;6.80;;
69188;SDS011;56302;52.322;5.926;2023-10-13T04:35:03;13.55;;;6.95;;
69188;SDS011;56302;52.322;5.926;2023-10-13T04:37:38;13.18;;;7.30;;
69188;SDS011;56302;52.322;5.926;2023-10-13T04:40:25;11.82;;;7.40;;
69188;SDS011;56302;52.322;5.926;2023-10-13T04:42:51;14.43;;;6.87;;
69188;SDS011;56302;52.322;5.926;2023-10-13T04:45:29;15.43;;;7.55;;
69188;SDS011;56302;52.322;5.926;2023-10-13T04:47:54;9.65;;;6.07;;
69188;SDS011;56302;52.322;5.926;2023-10-13T04:50:39;11.82;;;5.82;;
69188;SDS011;56302;52.322;5.926;2023-10-13T04:53:15;9.63;;;6.10;;
69188;SDS011;56302;52.322;5.926;2023-10-13T04:55:58;12.23;;;5.78;;
69188;SDS011;56302;52.322;5.926;2023-10-13T04:58:44;8.88;;;5.45;;
69188;SDS011;56302;52.322;5.926;2023-10-13T05:01:28;12.73;;;5.18;;
69188;SDS011;56302;52.322;5.926;2023-10-13T05:03:54;12.45;;;5.32;;
69188;SDS011;56302;52.322;5.926;2023-10-13T05:06:38;8.13;;;5.20;;
69188;SDS011;56302;52.322;5.926;2023-10-13T05:09:12;12.23;;;5.00;;
69188;SDS011;56302;52.322;5.926;2023-10-13T05:11:57;9.80;;;5.25;;
69188;SDS011;56302;52.322;5.926;2023-10-13T05:14:42;9.73;;;4.18;;
69188;SDS011;56302;52.322;5.926;2023-10-13T05:17:25;8.18;;;4.32;;
69188;SDS011;56302;52.322;5.926;2023-10-13T05:20:10;9.20;;;3.85;;
69188;SDS011;56302;52.322;5.926;2023-10-13T05:22:54;6.17;;;3.83;;
69188;SDS011;56302;52.322;5.926;2023-10-13T05:25:38;7.57;;;3.15;;
69188;SDS011;56302;52.322;5.926;2023-10-13T05:28:22;8.23;;;3.28;;
69188;SDS011;56302;52.322;5.926;2023-10-13T05:31:07;6.30;;;3.13;;
69188;SDS011;56302;52.322;5.926;2023-10-13T05:33:51;7.32;;;3.30;;
69188;SDS011;56302;52.322;5.926;2023-10-13T05:36:36;6.57;;;3.03;;
69188;SDS011;56302;52.322;5.926;2023-10-13T05:39:20;6.80;;;2.85;;
69188;SDS011;56302;52.322;5.926;2023-10-13T05:42:04;9.85;;;2.95;;
69188;SDS011;56302;52.322;5.926;2023-10-13T05:44:48;11.38;;;3.40;;
69188;SDS011;56302;52.322;5.926;2023-10-13T05:47:49;6.25;;;3.50;;
69188;SDS011;56302;52.322;5.926;2023-10-13T05:50:26;9.40;;;3.43;;
69188;SDS011;56302;52.322;5.926;2023-10-13T05:52:51;9.40;;;4.63;;
69188;SDS011;56302;52.322;5.926;2023-10-13T05:55:26;7.88;;;4.22;;
69188;SDS011;56302;52.322;5.926;2023-10-13T05:58:12;9.48;;;4.20;;
69188;SDS011;56302;52.322;5.926;2023-10-13T06:00:56;10.80;;;5.05;;
69188;SDS011;56302;52.322;5.926;2023-10-13T06:03:41;12.57;;;5.40;;
69188;SDS011;56302;52.322;5.926;2023-10-13T06:06:25;13.30;;;5.28;;
69188;SDS011;56302;52.322;5.926;2023-10-13T06:09:09;14.30;;;5.43;;
69188;SDS011;56302;52.322;5.926;2023-10-13T06:11:53;14.90;;;5.10;;
69188;SDS011;56302;52.322;5.926;2023-10-13T06:14:38;10.43;;;5.47;;
69188;SDS011;56302;52.322;5.926;2023-10-13T06:17:22;13.02;;;4.85;;
69188;SDS011;56302;52.322;5.926;2023-10-13T06:20:06;19.90;;;6.68;;
69188;SDS011;56302;52.322;5.926;2023-10-13T06:22:51;12.82;;;5.57;;
69188;SDS011;56302;52.322;5.926;2023-10-13T06:25:37;13.77;;;4.72;;
69188;SDS011;56302;52.322;5.926;2023-10-13T06:28:21;15.70;;;5.47;;
69188;SDS011;56302;52.322;5.926;2023-10-13T06:31:05;16.25;;;4.95;;
69188;SDS011;56302;52.322;5.926;2023-10-13T06:33:32;11.20;;;4.72;;
69188;SDS011;56302;52.322;5.926;2023-10-13T06:36:03;15.85;;;5.25;;
69188;SDS011;56302;52.322;5.926;2023-10-13T06:38:34;12.18;;;4.68;;
69188;SDS011;56302;52.322;5.926;2023-10-13T06:41:06;15.32;;;6.25;;
69188;SDS011;56302;52.322;5.926;2023-10-13T06:43:32;22.17;;;6.72;;
69188;SDS011;56302;52.322;5.926;2023-10-13T06:46:04;16.73;;;5.25;;
69188;SDS011;56302;52.322;5.926;2023-10-13T06:48:39;16.48;;;5.22;;
69188;SDS011;56302;52.322;5.926;2023-10-13T06:51:05;14.27;;;5.20;;
69188;SDS011;56302;52.322;5.926;2023-10-13T06:53:43;17.88;;;5.25;;
69188;SDS011;56302;52.322;5.926;2023-10-13T06:56:15;11.57;;;5.20;;
69188;SDS011;56302;52.322;5.926;2023-10-13T06:58:52;17.77;;;6.20;;
69188;SDS011;56302;52.322;5.926;2023-10-13T07:01:24;14.65;;;5.50;;
69188;SDS011;56302;52.322;5.926;2023-10-13T07:03:52;16.58;;;6.28;;
69188;SDS011;56302;52.322;5.926;2023-10-13T07:06:21;15.80;;;5.65;;
69188;SDS011;56302;52.322;5.926;2023-10-13T07:08:47;14.05;;;6.82;;
69188;SDS011;56302;52.322;5.926;2023-10-13T07:11:17;19.63;;;6.20;;
69188;SDS011;56302;52.322;5.926;2023-10-13T07:14:01;17.40;;;5.63;;
69188;SDS011;56302;52.322;5.926;2023-10-13T07:16:39;18.88;;;6.25;;
69188;SDS011;56302;52.322;5.926;2023-10-13T07:19:12;13.75;;;6.03;;
69188;SDS011;56302;52.322;5.926;2023-10-13T07:21:42;13.52;;;5.85;;
69188;SDS011;56302;52.322;5.926;2023-10-13T07:24:11;12.85;;;5.95;;
69188;SDS011;56302;52.322;5.926;2023-10-13T07:26:38;12.77;;;5.97;;
69188;SDS011;56302;52.322;5.926;2023-10-13T07:29:07;13.63;;;5.88;;
69188;SDS011;56302;52.322;5.926;2023-10-13T07:31:37;16.52;;;6.13;;
69188;SDS011;56302;52.322;5.926;2023-10-13T07:34:04;11.77;;;5.90;;
69188;SDS011;56302;52.322;5.926;2023-10-13T07:36:37;12.55;;;5.90;;
69188;SDS011;56302;52.322;5.926;2023-10-13T07:39:04;11.05;;;5.65;;
69188;SDS011;56302;52.322;5.926;2023-10-13T07:41:50;10.93;;;6.18;;
69188;SDS011;56302;52.322;5.926;2023-10-13T07:44:23;8.63;;;5.35;;
69188;SDS011;56302;52.322;5.926;2023-10-13T07:46:57;12.52;;;5.90;;
69188;SDS011;56302;52.322;5.926;2023-10-13T07:49:26;15.48;;;5.82;;
69188;SDS011;56302;52.322;5.926;2023-10-13T07:51:55;10.55;;;5.63;;
69188;SDS011;56302;52.322;5.926;2023-10-13T07:54:25;11.40;;;5.50;;
69188;SDS011;56302;52.322;5.926;2023-10-13T07:56:51;11.57;;;5.57;;
69188;SDS011;56302;52.322;5.926;2023-10-13T07:59:19;12.43;;;5.93;;
69188;SDS011;56302;52.322;5.926;2023-10-13T08:01:47;14.27;;;5.40;;
69188;SDS011;56302;52.322;5.926;2023-10-13T08:04:31;14.00;;;5.82;;
69188;SDS011;56302;52.322;5.926;2023-10-13T08:07:00;11.98;;;5.22;;
69188;SDS011;56302;52.322;5.926;2023-10-13T08:09:37;17.60;;;5.47;;
69188;SDS011;56302;52.322;5.926;2023-10-13T08:12:05;14.70;;;5.70;;
69188;SDS011;56302;52.322;5.926;2023-10-13T08:14:36;13.87;;;4.70;;
69188;SDS011;56302;52.322;5.926;2023-10-13T08:17:04;14.13;;;5.55;;
69188;SDS011;56302;52.322;5.926;2023-10-13T08:19:33;14.82;;;5.15;;
69188;SDS011;56302;52.322;5.926;2023-10-13T08:22:05;15.15;;;5.05;;
69188;SDS011;56302;52.322;5.926;2023-10-13T08:24:46;11.27;;;5.40;;
69188;SDS011;56302;52.322;5.926;2023-10-13T08:27:13;16.27;;;4.83;;
69188;SDS011;56302;52.322;5.926;2023-10-13T08:29:43;21.70;;;5.28;;
69188;SDS011;56302;52.322;5.926;2023-10-13T08:32:18;19.95;;;5.28;;
69188;SDS011;56302;52.322;5.926;2023-10-13T08:34:56;15.88;;;4.97;;
69188;SDS011;56302;52.322;5.926;2023-10-13T08:37:23;15.13;;;5.43;;
69188;SDS011;56302;52.322;5.926;2023-10-13T08:39:50;13.77;;;4.70;;
69188;SDS011;56302;52.322;5.926;2023-10-13T08:42:28;10.68;;;4.60;;
69188;SDS011;56302;52.322;5.926;2023-10-13T08:45:15;12.57;;;4.90;;
69188;SDS011;56302;52.322;5.926;2023-10-13T08:47:48;14.75;;;5.45;;
69188;SDS011;56302;52.322;5.926;2023-10-13T08:50:22;16.45;;;5.32;;
69188;SDS011;56302;52.322;5.926;2023-10-13T08:53:13;14.53;;;4.53;;
69188;SDS011;56302;52.322;5.926;2023-10-13T08:55:58;15.43;;;5.15;;
69188;SDS011;56302;52.322;5.926;2023-10-13T08:58:46;12.90;;;4.78;;
69188;SDS011;56302;52.322;5.926;2023-10-13T09:01:19;14.57;;;5.57;;
69188;SDS011;56302;52.322;5.926;2023-10-13T09:03:57;17.25;;;5.38;;
69188;SDS011;56302;52.322;5.926;2023-10-13T09:06:50;12.60;;;4.70;;
69188;SDS011;56302;52.322;5.926;2023-10-13T09:09:33;15.82;;;4.40;;
69188;SDS011;56302;52.322;5.926;2023-10-13T09:12:12;14.63;;;5.28;;
69188;SDS011;56302;52.322;5.926;2023-10-13T09:14:41;13.95;;;5.03;;
69188;SDS011;56302;52.322;5.926;2023-10-13T09:17:13;15.70;;;4.90;;
69188;SDS011;56302;52.322;5.926;2023-10-13T09:19:45;19.00;;;4.43;;
69188;SDS011;56302;52.322;5.926;2023-10-13T09:22:22;14.32;;;4.90;;
69188;SDS011;56302;52.322;5.926;2023-10-13T09:24:53;14.35;;;5.13;;
69188;SDS011;56302;52.322;5.926;2023-10-13T09:27:26;13.48;;;4.63;;
69188;SDS011;56302;52.322;5.926;2023-10-13T09:29:59;14.10;;;4.43;;
69188;SDS011;56302;52.322;5.926;2023-10-13T09:32:43;13.27;;;5.27;;
69188;SDS011;56302;52.322;5.926;2023-10-13T09:35:19;14.70;;;5.35;;
69188;SDS011;56302;52.322;5.926;2023-10-13T09:37:51;17.55;;;5.65;;
69188;SDS011;56302;52.322;5.926;2023-10-13T09:40:21;15.02;;;4.97;;
69188;SDS011;56302;52.322;5.926;2023-10-13T09:42:53;15.32;;;4.70;;
69188;SDS011;56302;52.322;5.926;2023-10-13T09:45:31;15.83;;;4.80;;
69188;SDS011;56302;52.322;5.926;2023-10-13T09:48:01;15.23;;;4.93;;
69188;SDS011;56302;52.322;5.926;2023-10-13T09:50:31;12.43;;;5.30;;
69188;SDS011;56302;52.322;5.926;2023-10-13T09:53:03;15.38;;;4.95;;
69188;SDS011;56302;52.322;5.926;2023-10-13T09:55:38;14.80;;;4.70;;
69188;SDS011;56302;52.322;5.926;2023-10-13T09:58:09;12.17;;;4.43;;
69188;SDS011;56302;52.322;5.926;2023-10-13T10:00:43;15.00;;;5.10;;
69188;SDS011;56302;52.322;5.926;2023-10-13T10:03:22;16.23;;;5.22;;
69188;SDS011;56302;52.322;5.926;2023-10-13T10:05:59;15.38;;;4.75;;
69188;SDS011;56302;52.322;5.926;2023-10-13T10:08:31;13.52;;;5.15;;
69188;SDS011;56302;52.322;5.926;2023-10-13T10:16:26;12.98;;;5.15;;
69188;SDS011;56302;52.322;5.926;2023-10-13T10:19:02;16.38;;;5.07;;
69188;SDS011;56302;52.322;5.926;2023-10-13T10:21:34;15.03;;;5.00;;
69188;SDS011;56302;52.322;5.926;2023-10-13T10:24:00;12.27;;;4.05;;
69188;SDS011;56302;52.322;5.926;2023-10-13T10:26:38;15.70;;;5.40;;
69188;SDS011;56302;52.322;5.926;2023-10-13T10:29:14;15.75;;;5.10;;
69188;SDS011;56302;52.322;5.926;2023-10-13T10:31:40;15.60;;;4.68;;
69188;SDS011;56302;52.322;5.926;2023-10-13T10:34:15;15.10;;;5.15;;
69188;SDS011;56302;52.322;5.926;2023-10-13T10:36:45;11.17;;;4.40;;
69188;SDS011;56302;52.322;5.926;2023-10-13T10:39:12;9.02;;;4.82;;
69188;SDS011;56302;52.322;5.926;2023-10-13T10:41:38;18.85;;;5.40;;
69188;SDS011;56302;52.322;5.926;2023-10-13T10:44:19;20.55;;;5.25;;
69188;SDS011;56302;52.322;5.926;2023-10-13T10:47:12;16.02;;;5.00;;
69188;SDS011;56302;52.322;5.926;2023-10-13T10:49:46;17.00;;;5.55;;
69188;SDS011;56302;52.322;5.926;2023-10-13T10:52:15;15.60;;;4.85;;
69188;SDS011;56302;52.322;5.926;2023-10-13T10:54:45;21.70;;;5.45;;
69188;SDS011;56302;52.322;5.926;2023-10-13T10:57:16;11.63;;;4.78;;
69188;SDS011;56302;52.322;5.926;2023-10-13T10:59:43;15.63;;;4.53;;
69188;SDS011;56302;52.322;5.926;2023-10-13T11:02:10;15.50;;;5.17;;
69188;SDS011;56302;52.322;5.926;2023-10-13T11:04:40;14.80;;;5.53;;
69188;SDS011;56302;52.322;5.926;2023-10-13T11:07:20;14.23;;;5.47;;
69188;SDS011;56302;52.322;5.926;2023-10-13T11:09:46;14.88;;;4.65;;
69188;SDS011;56302;52.322;5.926;2023-10-13T11:12:13;16.87;;;5.50;;
69188;SDS011;56302;52.322;5.926;2023-10-13T11:14:41;13.10;;;4.70;;
69188;SDS011;56302;52.322;5.926;2023-10-13T11:17:08;12.30;;;4.93;;
69188;SDS011;56302;52.322;5.926;2023-10-13T11:19:46;15.15;;;5.68;;
69188;SDS011;56302;52.322;5.926;2023-10-13T11:22:12;12.10;;;5.13;;
69188;SDS011;56302;52.322;5.926;2023-10-13T11:25:01;15.20;;;5.45;;
69188;SDS011;56302;52.322;5.926;2023-10-13T11:27:37;13.90;;;4.75;;
69188;SDS011;56302;52.322;5.926;2023-10-13T11:30:19;19.73;;;5.85;;
69188;SDS011;56302;52.322;5.926;2023-10-13T11:32:45;13.90;;;5.07;;
69188;SDS011;56302;52.322;5.926;2023-10-13T11:35:30;15.02;;;5.00;;
69188;SDS011;56302;52.322;5.926;2023-10-13T11:38:14;17.52;;;4.85;;
69188;SDS011;56302;52.322;5.926;2023-10-13T11:40:41;15.52;;;5.22;;
69188;SDS011;56302;52.322;5.926;2023-10-13T11:43:24;17.08;;;4.80;;
69188;SDS011;56302;52.322;5.926;2023-10-13T11:45:51;12.03;;;4.57;;
69188;SDS011;56302;52.322;5.926;2023-10-13T11:48:38;11.15;;;5.05;;
69188;SDS011;56302;52.322;5.926;2023-10-13T11:51:07;16.33;;;5.07;;
69188;SDS011;56302;52.322;5.926;2023-10-13T11:53:34;17.98;;;5.50;;
69188;SDS011;56302;52.322;5.926;2023-10-13T11:56:01;15.70;;;5.18;;
69188;SDS011;56302;52.322;5.926;2023-10-13T11:58:33;14.13;;;4.67;;
69188;SDS011;56302;52.322;5.926;2023-10-13T12:00:59;16.00;;;5.15;;
69188;SDS011;56302;52.322;5.926;2023-10-13T12:03:43;17.58;;;5.32;;
69188;SDS011;56302;52.322;5.926;2023-10-13T12:06:29;20.58;;;5.30;;
69188;SDS011;56302;52.322;5.926;2023-10-13T12:09:02;15.57;;;5.55;;
69188;SDS011;56302;52.322;5.926;2023-10-13T12:11:41;17.07;;;5.37;;
69188;SDS011;56302;52.322;5.926;2023-10-13T12:14:10;15.35;;;5.40;;
69188;SDS011;56302;52.322;5.926;2023-10-13T12:16:51;12.93;;;5.13;;
69188;SDS011;56302;52.322;5.926;2023-10-13T12:19:17;18.77;;;5.80;;
69188;SDS011;56302;52.322;5.926;2023-10-13T12:21:48;12.07;;;4.97;;
69188;SDS011;56302;52.322;5.926;2023-10-13T12:24:21;17.55;;;5.03;;
69188;SDS011;56302;52.322;5.926;2023-10-13T12:27:05;14.38;;;5.22;;
69188;SDS011;56302;52.322;5.926;2023-10-13T12:29:50;17.42;;;5.35;;
69188;SDS011;56302;52.322;5.926;2023-10-13T12:32:20;15.00;;;5.13;;
69188;SDS011;56302;52.322;5.926;2023-10-13T12:34:55;16.17;;;5.65;;
69188;SDS011;56302;52.322;5.926;2023-10-13T12:37:24;12.97;;;5.20;;
69188;SDS011;56302;52.322;5.926;2023-10-13T12:40:07;17.98;;;6.03;;
69188;SDS011;56302;52.322;5.926;2023-10-13T12:42:53;17.08;;;5.97;;
69188;SDS011;56302;52.322;5.926;2023-10-13T12:45:38;15.18;;;5.78;;
69188;SDS011;56302;52.322;5.926;2023-10-13T12:48:22;19.25;;;5.60;;
69188;SDS011;56302;52.322;5.926;2023-10-13T12:51:06;14.67;;;5.67;;
69188;SDS011;56302;52.322;5.926;2023-10-13T12:53:51;16.48;;;5.93;;
69188;SDS011;56302;52.322;5.926;2023-10-13T12:56:17;20.48;;;5.78;;
69188;SDS011;56302;52.322;5.926;2023-10-13T12:58:50;14.57;;;4.80;;
69188;SDS011;56302;52.322;5.926;2023-10-13T13:01:19;14.30;;;5.20;;
69188;SDS011;56302;52.322;5.926;2023-10-13T13:03:49;18.07;;;4.90;;
69188;SDS011;56302;52.322;5.926;2023-10-13T13:06:19;12.98;;;5.50;;
69188;SDS011;56302;52.322;5.926;2023-10-13T13:11:17;14.70;;;5.83;;
69188;SDS011;56302;52.322;5.926;2023-10-13T13:13:43;15.30;;;4.80;;
69188;SDS011;56302;52.322;5.926;2023-10-13T13:16:11;11.63;;;5.30;;
69188;SDS011;56302;52.322;5.926;2023-10-13T13:18:37;17.33;;;5.57;;
69188;SDS011;56302;52.322;5.926;2023-10-13T13:21:04;13.60;;;5.50;;
69188;SDS011;56302;52.322;5.926;2023-10-13T13:23:31;20.20;;;5.78;;
69188;SDS011;56302;52.322;5.926;2023-10-13T13:25:57;19.48;;;6.18;;
69188;SDS011;56302;52.322;5.926;2023-10-13T13:28:23;13.65;;;5.40;;
69188;SDS011;56302;52.322;5.926;2023-10-13T13:30:49;20.20;;;5.57;;
69188;SDS011;56302;52.322;5.926;2023-10-13T13:33:16;18.23;;;6.20;;
69188;SDS011;56302;52.322;5.926;2023-10-13T13:35:42;12.18;;;5.35;;
69188;SDS011;56302;52.322;5.926;2023-10-13T13:38:08;15.90;;;6.35;;
69188;SDS011;56302;52.322;5.926;2023-10-13T13:40:55;23.13;;;5.03;;
69188;SDS011;56302;52.322;5.926;2023-10-13T13:43:21;19.52;;;5.95;;
69188;SDS011;56302;52.322;5.926;2023-10-13T13:46:25;11.65;;;5.00;;
69188;SDS011;56302;52.322;5.926;2023-10-13T13:48:57;15.47;;;6.27;;
69188;SDS011;56302;52.322;5.926;2023-10-13T13:51:25;15.93;;;5.75;;
69188;SDS011;56302;52.322;5.926;2023-10-13T13:53:52;17.25;;;5.47;;
69188;SDS011;56302;52.322;5.926;2023-10-13T13:56:19;15.13;;;5.75;;
69188;SDS011;56302;52.322;5.926;2023-10-13T13:58:45;16.07;;;5.97;;
69188;SDS011;56302;52.322;5.926;2023-10-13T14:01:11;16.95;;;7.13;;
69188;SDS011;56302;52.322;5.926;2023-10-13T14:03:39;17.70;;;6.00;;
69188;SDS011;56302;52.322;5.926;2023-10-13T14:06:10;18.02;;;6.85;;
69188;SDS011;56302;52.322;5.926;2023-10-13T14:08:53;16.65;;;6.47;;
69188;SDS011;56302;52.322;5.926;2023-10-13T14:11:29;17.03;;;6.23;;
69188;SDS011;56302;52.322;5.926;2023-10-13T14:14:08;18.05;;;6.60;;
69188;SDS011;56302;52.322;5.926;2023-10-13T14:16:39;21.42;;;7.43;;
69188;SDS011;56302;52.322;5.926;2023-10-13T14:19:12;16.05;;;7.03;;
69188;SDS011;56302;52.322;5.926;2023-10-13T14:22:05;19.17;;;6.95;;
69188;SDS011;56302;52.322;5.926;2023-10-13T14:24:36;13.30;;;5.83;;
69188;SDS011;56302;52.322;5.926;2023-10-13T14:27:08;18.00;;;6.55;;
69188;SDS011;56302;52.322;5.926;2023-10-13T14:29:40;14.23;;;6.45;;
69188;SDS011;56302;52.322;5.926;2023-10-13T14:32:11;19.40;;;6.40;;
69188;SDS011;56302;52.322;5.926;2023-10-13T14:34:47;18.30;;;7.40;;
69188;SDS011;56302;52.322;5.926;2023-10-13T14:37:19;15.77;;;6.57;;
69188;SDS011;56302;52.322;5.926;2023-10-13T14:39:52;21.05;;;6.22;;
69188;SDS011;56302;52.322;5.926;2023-10-13T14:42:22;19.00;;;7.13;;
69188;SDS011;56302;52.322;5.926;2023-10-13T14:44:51;16.52;;;6.38;;
69188;SDS011;56302;52.322;5.926;2023-10-13T14:47:23;19.65;;;6.45;;
69188;SDS011;56302;52.322;5.926;2023-10-13T14:49:53;18.40;;;6.43;;
69188;SDS011;56302;52.322;5.926;2023-10-13T14:52:20;21.15;;;6.88;;
69188;SDS011;56302;52.322;5.926;2023-10-13T14:54:46;18.35;;;5.95;;
69188;SDS011;56302;52.322;5.926;2023-10-13T14:57:13;15.30;;;6.60;;
69188;SDS011;56302;52.322;5.926;2023-10-13T14:59:39;18.40;;;6.33;;
69188;SDS011;56302;52.322;5.926;2023-10-13T15:02:04;17.07;;;6.13;;
69188;SDS011;56302;52.322;5.926;2023-10-13T15:04:30;16.75;;;7.05;;
69188;SDS011;56302;52.322;5.926;2023-10-13T15:06:59;17.30;;;6.45;;
69188;SDS011;56302;52.322;5.926;2023-10-13T15:09:27;19.17;;;6.10;;
69188;SDS011;56302;52.322;5.926;2023-10-13T15:11:53;14.48;;;6.47;;
69188;SDS011;56302;52.322;5.926;2023-10-13T15:14:19;22.57;;;6.30;;
69188;SDS011;56302;52.322;5.926;2023-10-13T15:16:48;12.93;;;5.68;;
69188;SDS011;56302;52.322;5.926;2023-10-13T15:19:14;17.00;;;6.45;;
69188;SDS011;56302;52.322;5.926;2023-10-13T15:21:41;16.65;;;5.60;;
69188;SDS011;56302;52.322;5.926;2023-10-13T15:24:08;15.00;;;6.25;;